Terminal Aerodrome Forecast
Issued by NWS Cleveland, OH

Home | Current Version | Previous Version | Text Only | Print | Product List | Glossary On
Versions: 1 2 3 4 5 6 7 8 9 10 11 12 13 14 15 16 17 18 19 20
000
FTUS41 KCLE 191342 AAB
TAFYNG
TAF AMD
KYNG 191342Z 1914/2012 29010KT P6SM OVC035
      TEMPO 1914/1918 OVC025
     FM192100 29012KT P6SM VCSH OVC035
     FM200600 26011KT P6SM BKN035
     FM201100 24009KT P6SM SCT250=

USA.gov is the U.S. government's official web portal to all federal, state and local government web resources and services.